createdAt,value
2022-10-18T00:04:10.657Z,12.83
2022-10-18T00:09:12.801Z,13.18
2022-10-18T00:14:14.492Z,12.90
2022-10-18T00:19:16.051Z,12.73
2022-10-18T00:24:17.664Z,12.67
2022-10-18T00:29:19.157Z,12.72
2022-10-18T00:34:20.699Z,12.67
2022-10-18T00:39:22.591Z,12.52
2022-10-18T00:44:27.174Z,12.66
2022-10-18T00:49:38.407Z,12.50
2022-10-18T00:54:42.646Z,12.64
2022-10-18T00:59:46.094Z,12.61
2022-10-18T01:04:48.641Z,12.34
2022-10-18T01:10:14.744Z,12.14
2022-10-18T01:15:38.933Z,12.60
2022-10-18T01:21:09.122Z,12.50
2022-10-18T01:26:26.351Z,12.09
2022-10-18T01:31:44.073Z,12.17
2022-10-18T01:36:52.023Z,12.18
2022-10-18T01:41:54.411Z,12.01
2022-10-18T01:46:58.079Z,12.22
2022-10-18T01:51:59.923Z,12.26
2022-10-18T01:57:25.566Z,12.16
2022-10-18T02:02:40.089Z,12.17
2022-10-18T02:07:51.968Z,12.09
2022-10-18T02:13:02.463Z,11.94
2022-10-18T02:18:10.809Z,11.80
2022-10-18T02:23:15.583Z,12.12
2022-10-18T02:28:17.362Z,12.19
2022-10-18T02:33:30.413Z,11.88
2022-10-18T02:38:32.935Z,11.70
2022-10-18T02:43:35.508Z,11.61
2022-10-18T02:48:36.995Z,11.66
2022-10-18T02:53:38.540Z,11.95
2022-10-18T02:58:40.026Z,12.07
2022-10-18T03:03:41.569Z,11.87
2022-10-18T03:08:43.147Z,11.75
2022-10-18T03:13:44.702Z,11.54
2022-10-18T03:18:46.478Z,11.30
2022-10-18T03:23:47.977Z,11.43
2022-10-18T03:28:49.533Z,11.31
2022-10-18T03:33:51.096Z,11.53
2022-10-18T03:38:52.628Z,11.65
2022-10-18T03:43:54.161Z,11.60
2022-10-18T03:48:55.699Z,11.50
2022-10-18T03:53:57.230Z,11.69
2022-10-18T03:58:58.773Z,11.70
2022-10-18T04:04:00.375Z,11.68
2022-10-18T04:09:04.176Z,11.53
2022-10-18T04:14:08.158Z,11.49
2022-10-18T04:19:09.777Z,11.88
2022-10-18T04:24:11.353Z,12.15
2022-10-18T04:29:13.043Z,12.09
2022-10-18T04:34:14.589Z,12.19
2022-10-18T04:39:16.721Z,12.18
2022-10-18T04:44:18.262Z,12.20
2022-10-18T04:49:20.296Z,12.19
2022-10-18T04:54:23.940Z,12.22
2022-10-18T04:59:28.527Z,12.33
2022-10-18T05:04:30.150Z,12.38
2022-10-18T05:09:31.746Z,12.39
2022-10-18T05:14:33.313Z,12.46
2022-10-18T05:19:34.921Z,12.52
2022-10-18T05:24:36.559Z,12.78
2022-10-18T05:29:38.207Z,13.00
2022-10-18T05:34:40.109Z,13.14
2022-10-18T05:39:41.976Z,13.00
2022-10-18T05:44:43.919Z,12.91
2022-10-18T05:49:45.717Z,12.93
2022-10-18T05:54:47.427Z,13.07
2022-10-18T05:59:49.153Z,13.23
2022-10-18T06:04:50.907Z,13.37
2022-10-18T06:09:52.641Z,13.53
2022-10-18T06:14:54.735Z,13.44
2022-10-18T06:19:57.523Z,13.58
2022-10-18T06:24:59.817Z,13.65
2022-10-18T06:30:01.884Z,13.78
2022-10-18T06:35:04.071Z,13.78
2022-10-18T06:40:06.718Z,13.57
2022-10-18T06:45:11.614Z,13.45
2022-10-18T06:50:13.947Z,13.24
2022-10-18T06:55:16.200Z,13.16
2022-10-18T07:00:18.456Z,13.35
2022-10-18T07:05:20.392Z,13.72
2022-10-18T07:10:23.231Z,13.92
2022-10-18T07:15:25.493Z,14.00
2022-10-18T07:20:28.039Z,14.20
2022-10-18T07:25:30.906Z,13.87
2022-10-18T07:30:32.551Z,14.04
2022-10-18T07:35:34.375Z,13.91
2022-10-18T07:40:35.958Z,14.22
2022-10-18T07:50:43.993Z,14.53
2022-10-18T07:55:45.697Z,14.60
2022-10-18T08:00:47.248Z,14.54
2022-10-18T08:05:55.606Z,14.75
2022-10-18T08:11:06.037Z,14.79
2022-10-18T08:16:10.726Z,14.78
2022-10-18T08:21:14.052Z,14.55
2022-10-18T08:26:18.056Z,15.04
2022-10-18T08:31:20.169Z,15.11
2022-10-18T08:36:21.756Z,15.08
2022-10-18T08:41:32.164Z,15.15
2022-10-18T08:46:36.440Z,14.93
2022-10-18T08:51:45.179Z,14.77
2022-10-18T08:56:54.550Z,14.96
2022-10-18T09:02:34.025Z,14.87
2022-10-18T09:07:56.257Z,14.79
2022-10-18T09:13:48.818Z,14.99
2022-10-18T09:19:12.568Z,15.20
2022-10-18T09:24:39.250Z,15.12
2022-10-18T09:30:06.213Z,15.28
2022-10-18T09:35:21.727Z,15.36
2022-10-18T09:40:26.850Z,15.42
2022-10-18T09:45:37.874Z,15.49
2022-10-18T09:50:43.818Z,15.62
2022-10-18T09:56:03.608Z,15.68
2022-10-18T10:01:06.425Z,15.87
2022-10-18T10:06:16.654Z,15.95
2022-10-18T10:11:34.650Z,16.33
2022-10-18T10:16:44.678Z,16.23
2022-10-18T10:21:48.586Z,16.26
2022-10-18T10:26:50.303Z,16.44
2022-10-18T10:32:04.571Z,16.17
2022-10-18T10:37:24.184Z,15.84
2022-10-18T10:42:25.780Z,15.63
2022-10-18T10:47:36.577Z,15.58
2022-10-18T10:52:40.891Z,15.33
2022-10-18T10:57:45.953Z,15.10
2022-10-18T11:02:59.252Z,15.29
2022-10-18T11:08:10.993Z,15.24
2022-10-18T11:13:35.707Z,15.15
2022-10-18T11:18:37.992Z,15.26
2022-10-18T11:23:42.094Z,15.07
2022-10-18T11:29:02.430Z,14.98
2022-10-18T11:34:17.900Z,15.13
2022-10-18T11:39:24.686Z,15.49
2022-10-18T11:44:31.987Z,15.24
2022-10-18T11:49:41.818Z,15.24
2022-10-18T11:55:00.057Z,15.30
2022-10-18T12:00:49.198Z,15.30
2022-10-18T12:05:52.925Z,14.99
2022-10-18T12:11:05.066Z,15.07
2022-10-18T12:16:09.405Z,15.01
2022-10-18T12:21:12.803Z,14.98
2022-10-18T12:26:15.601Z,15.15
2022-10-18T12:31:33.821Z,15.33
2022-10-18T12:36:54.377Z,15.08
2022-10-18T12:41:56.962Z,14.97
2022-10-18T12:47:01.586Z,15.01
2022-10-18T12:52:06.577Z,15.20
2022-10-18T12:57:23.574Z,15.12
2022-10-18T13:02:27.283Z,15.26
2022-10-18T13:07:32.301Z,15.18
2022-10-18T13:12:46.842Z,15.17
2022-10-18T13:17:58.992Z,15.10
2022-10-18T13:23:27.240Z,15.09
2022-10-18T13:28:45.501Z,15.51
2022-10-18T13:33:47.415Z,15.18
2022-10-18T13:38:57.967Z,15.19
2022-10-18T13:44:02.633Z,15.30
2022-10-18T13:49:34.507Z,15.28
2022-10-18T13:55:14.732Z,15.22
2022-10-18T14:00:50.224Z,15.30
2022-10-18T14:05:55.244Z,15.31
2022-10-18T14:11:03.094Z,15.25
2022-10-18T14:16:30.888Z,15.25
2022-10-18T14:21:38.568Z,15.54
2022-10-18T14:26:40.299Z,15.54
2022-10-18T14:31:52.230Z,15.54
2022-10-18T14:36:53.962Z,15.38
2022-10-18T14:41:57.696Z,15.33
2022-10-18T14:47:13.812Z,15.22
2022-10-18T14:52:21.949Z,15.32
2022-10-18T14:57:31.512Z,15.08
2022-10-18T15:02:37.386Z,15.12
2022-10-18T15:07:39.075Z,15.17
2022-10-18T15:13:08.293Z,15.01
2022-10-18T15:18:06.630Z,15.07
2022-10-18T15:23:31.310Z,14.93
2022-10-18T15:28:51.311Z,14.84
2022-10-18T15:33:55.098Z,14.93
2022-10-18T15:39:08.483Z,14.95
2022-10-18T15:44:28.353Z,14.71
2022-10-18T15:49:56.167Z,14.78
2022-10-18T15:55:00.387Z,14.65
2022-10-18T16:00:07.419Z,14.48
2022-10-18T16:05:20.723Z,14.35
2022-10-18T16:10:22.493Z,14.26
2022-10-18T16:15:24.377Z,14.14
2022-10-18T16:20:26.899Z,14.08
2022-10-18T16:25:28.527Z,14.08
2022-10-18T16:30:34.067Z,14.40
2022-10-18T16:35:35.933Z,14.21
2022-10-18T16:40:40.423Z,14.26
2022-10-18T16:45:43.450Z,14.05
2022-10-18T16:50:45.430Z,14.19
2022-10-18T16:55:47.240Z,13.98
2022-10-18T17:00:49.930Z,13.89
2022-10-18T17:05:51.900Z,13.93
2022-10-18T17:10:57.534Z,13.98
2022-10-18T17:15:59.883Z,14.13
2022-10-18T17:21:03.208Z,13.87
2022-10-18T17:26:21.910Z,13.77
2022-10-18T17:31:27.351Z,13.59
2022-10-18T17:36:30.702Z,13.55
2022-10-18T17:41:32.502Z,13.48
2022-10-18T17:46:34.163Z,13.48
2022-10-18T17:51:35.999Z,13.26
2022-10-18T17:56:39.758Z,13.11
2022-10-18T18:01:41.571Z,13.05
2022-10-18T18:06:45.620Z,13.07
2022-10-18T18:11:48.623Z,13.16
2022-10-18T18:16:51.170Z,13.22
2022-10-18T18:21:55.957Z,13.29
2022-10-18T18:26:58.141Z,13.35
2022-10-18T18:32:03.484Z,13.44
2022-10-18T18:37:05.017Z,13.44
2022-10-18T18:42:07.398Z,13.60
2022-10-18T18:47:13.095Z,13.56
2022-10-18T18:52:15.301Z,13.44
2022-10-18T18:57:17.407Z,13.38
2022-10-18T19:02:19.315Z,13.41
2022-10-18T19:07:20.954Z,13.47
2022-10-18T19:12:23.020Z,13.37
2022-10-18T19:17:24.665Z,13.36
2022-10-18T19:22:26.304Z,13.51
2022-10-18T19:27:28.025Z,13.65
2022-10-18T19:32:29.887Z,13.68
2022-10-18T19:37:31.954Z,13.73
2022-10-18T19:42:34.105Z,13.61
2022-10-18T19:47:38.475Z,13.76
2022-10-18T19:52:40.196Z,13.69
2022-10-18T19:57:42.004Z,13.70
2022-10-18T20:02:43.777Z,13.59
2022-10-18T20:07:47.332Z,13.33
2022-10-18T20:12:48.948Z,13.34
2022-10-18T20:17:50.579Z,13.47
2022-10-18T20:22:52.170Z,13.35
2022-10-18T20:27:54.166Z,13.21
2022-10-18T20:32:55.855Z,13.31
2022-10-18T20:37:57.917Z,13.18
2022-10-18T20:43:03.663Z,12.94
2022-10-18T20:48:05.707Z,13.18
2022-10-18T20:53:07.427Z,13.15
2022-10-18T20:58:10.279Z,12.87
2022-10-18T21:08:18.625Z,12.72
2022-10-18T21:13:21.304Z,12.65
2022-10-18T21:18:28.377Z,12.70
2022-10-18T21:23:30.092Z,12.74
2022-10-18T21:28:31.953Z,12.69
2022-10-18T21:33:33.662Z,12.75
2022-10-18T21:38:35.353Z,12.75
2022-10-18T21:43:40.920Z,12.71
2022-10-18T21:48:44.655Z,12.71
2022-10-18T21:53:48.328Z,12.90
2022-10-18T21:58:50.010Z,13.00
2022-10-18T22:03:58.407Z,12.81
2022-10-18T22:09:04.066Z,12.75
2022-10-18T22:14:06.025Z,13.01
2022-10-18T22:19:08.173Z,13.19
2022-10-18T22:24:09.917Z,13.01
2022-10-18T22:29:20.341Z,13.26
2022-10-18T22:34:27.587Z,13.00
2022-10-18T22:39:29.519Z,12.95
2022-10-18T22:44:31.131Z,12.96
2022-10-18T22:49:32.710Z,12.80
2022-10-18T22:54:34.286Z,12.87
2022-10-18T22:59:35.822Z,12.72
2022-10-18T23:04:37.390Z,12.75
2022-10-18T23:14:41.569Z,12.46
2022-10-18T23:19:43.115Z,12.50
2022-10-18T23:24:45.015Z,12.63
2022-10-18T23:29:46.921Z,12.33
2022-10-18T23:34:48.484Z,12.17
2022-10-18T23:39:50.103Z,12.00
2022-10-18T23:44:51.723Z,11.93
2022-10-18T23:49:55.545Z,11.89
2022-10-18T23:54:57.086Z,12.03
2022-10-18T23:59:58.592Z,11.81
